FANY weather

Nylstroom Airfield
Modimolle, Limpopo, South Africa

Public forecast

Using degrees Celsius for public forecast. Weather courtesy of forecast.io.

METAR (pilot weather report)

Report is more than 6 hours old.

Closest report is Wonderboom Airport, 59.2 nm (109.7 km) S. Retrieved 2019/05/19 15:00 UTC (9 hours ago):

FAWB 191500Z VRB01KT CAVOK 25/04 Q1023

TAF (pilot weather forecast)

Forecast is more than 12 hours old.

Closest forecast is Wonderboom Airport, 59.2 nm (109.7 km) S. Retrieved 2019/01/10 10:00 UTC (4 months ago):

TAF FAWB 101000Z 1010/1018 30007KT CAVOK BECMG 1014/1016 SCT035 PROB30 TEMPO 1016/1018 -TSRA FEW040CB TX31/1013Z TN26/1018Z